sensor_id;sensor_type;location;lat;lon;timestamp;P1;durP1;ratioP1;P2;durP2;ratioP2
25649;SDS011;13505;45.196;5.696;2023-02-23T05:02:03;49.47;;;24.73;;
25649;SDS011;13505;45.196;5.696;2023-02-23T05:06:54;45.00;;;24.10;;
25649;SDS011;13505;45.196;5.696;2023-02-23T05:11:44;48.85;;;24.65;;
25649;SDS011;13505;45.196;5.696;2023-02-23T05:16:35;44.97;;;23.15;;
25649;SDS011;13505;45.196;5.696;2023-02-23T05:21:25;54.85;;;24.83;;
25649;SDS011;13505;45.196;5.696;2023-02-23T05:26:16;48.40;;;25.05;;
25649;SDS011;13505;45.196;5.696;2023-02-23T05:31:08;51.30;;;25.70;;
25649;SDS011;13505;45.196;5.696;2023-02-23T05:35:59;50.78;;;25.63;;
25649;SDS011;13505;45.196;5.696;2023-02-23T05:40:54;47.15;;;22.45;;
25649;SDS011;13505;45.196;5.696;2023-02-23T05:45:44;43.13;;;21.13;;
25649;SDS011;13505;45.196;5.696;2023-02-23T05:50:35;34.72;;;18.25;;
25649;SDS011;13505;45.196;5.696;2023-02-23T05:55:25;33.58;;;17.67;;
25649;SDS011;13505;45.196;5.696;2023-02-23T06:00:16;37.33;;;17.13;;
25649;SDS011;13505;45.196;5.696;2023-02-23T06:05:07;37.88;;;19.13;;
25649;SDS011;13505;45.196;5.696;2023-02-23T06:09:58;39.00;;;19.20;;
25649;SDS011;13505;45.196;5.696;2023-02-23T06:14:49;42.50;;;20.55;;
25649;SDS011;13505;45.196;5.696;2023-02-23T06:19:39;43.97;;;21.23;;
25649;SDS011;13505;45.196;5.696;2023-02-23T06:24:30;48.53;;;22.65;;
25649;SDS011;13505;45.196;5.696;2023-02-23T06:29:20;57.72;;;25.75;;
25649;SDS011;13505;45.196;5.696;2023-02-23T06:34:10;54.10;;;25.67;;
25649;SDS011;13505;45.196;5.696;2023-02-23T06:39:01;46.83;;;24.17;;
25649;SDS011;13505;45.196;5.696;2023-02-23T06:43:52;55.88;;;25.52;;
25649;SDS011;13505;45.196;5.696;2023-02-23T06:48:43;39.53;;;19.83;;
25649;SDS011;13505;45.196;5.696;2023-02-23T06:53:34;42.10;;;20.52;;
25649;SDS011;13505;45.196;5.696;2023-02-23T06:58:25;42.33;;;21.35;;
25649;SDS011;13505;45.196;5.696;2023-02-23T07:03:15;48.75;;;20.85;;
25649;SDS011;13505;45.196;5.696;2023-02-23T07:08:05;41.38;;;20.48;;
25649;SDS011;13505;45.196;5.696;2023-02-23T07:12:56;40.42;;;21.23;;
25649;SDS011;13505;45.196;5.696;2023-02-23T07:17:48;40.13;;;20.63;;
25649;SDS011;13505;45.196;5.696;2023-02-23T07:22:40;41.72;;;21.27;;
25649;SDS011;13505;45.196;5.696;2023-02-23T07:27:31;45.78;;;21.60;;
25649;SDS011;13505;45.196;5.696;2023-02-23T07:32:21;37.92;;;19.08;;
25649;SDS011;13505;45.196;5.696;2023-02-23T07:37:12;39.05;;;19.70;;
25649;SDS011;13505;45.196;5.696;2023-02-23T07:42:02;37.42;;;18.35;;
25649;SDS011;13505;45.196;5.696;2023-02-23T07:46:53;34.45;;;20.13;;
25649;SDS011;13505;45.196;5.696;2023-02-23T07:51:43;50.00;;;25.92;;
25649;SDS011;13505;45.196;5.696;2023-02-23T07:56:34;89.43;;;41.95;;
25649;SDS011;13505;45.196;5.696;2023-02-23T08:01:24;41.03;;;22.95;;
25649;SDS011;13505;45.196;5.696;2023-02-23T08:06:15;45.30;;;24.55;;
25649;SDS011;13505;45.196;5.696;2023-02-23T08:11:07;55.88;;;27.33;;
25649;SDS011;13505;45.196;5.696;2023-02-23T08:15:57;50.60;;;24.95;;
25649;SDS011;13505;45.196;5.696;2023-02-23T08:20:48;47.70;;;25.35;;
25649;SDS011;13505;45.196;5.696;2023-02-23T08:25:38;43.30;;;24.08;;
25649;SDS011;13505;45.196;5.696;2023-02-23T08:30:29;44.97;;;23.05;;
25649;SDS011;13505;45.196;5.696;2023-02-23T08:35:20;44.10;;;23.13;;
25649;SDS011;13505;45.196;5.696;2023-02-23T08:40:11;41.45;;;24.10;;
25649;SDS011;13505;45.196;5.696;2023-02-23T08:45:04;49.20;;;22.65;;
25649;SDS011;13505;45.196;5.696;2023-02-23T08:49:55;45.65;;;23.13;;
25649;SDS011;13505;45.196;5.696;2023-02-23T08:54:45;39.43;;;21.17;;
25649;SDS011;13505;45.196;5.696;2023-02-23T08:59:36;47.88;;;22.80;;
25649;SDS011;13505;45.196;5.696;2023-02-23T09:04:30;49.40;;;22.58;;
25649;SDS011;13505;45.196;5.696;2023-02-23T09:09:21;45.25;;;23.92;;
25649;SDS011;13505;45.196;5.696;2023-02-23T09:14:11;41.10;;;23.13;;
25649;SDS011;13505;45.196;5.696;2023-02-23T09:19:02;40.58;;;22.17;;
25649;SDS011;13505;45.196;5.696;2023-02-23T09:23:53;38.78;;;21.65;;
25649;SDS011;13505;45.196;5.696;2023-02-23T09:28:45;38.47;;;22.90;;
25649;SDS011;13505;45.196;5.696;2023-02-23T09:33:35;41.88;;;22.30;;
25649;SDS011;13505;45.196;5.696;2023-02-23T09:38:26;42.40;;;23.23;;
25649;SDS011;13505;45.196;5.696;2023-02-23T09:48:23;46.83;;;25.75;;
25649;SDS011;13505;45.196;5.696;2023-02-23T09:58:31;35.65;;;18.90;;
25649;SDS011;13505;45.196;5.696;2023-02-23T10:24:38;26.35;;;14.10;;
25649;SDS011;13505;45.196;5.696;2023-02-23T10:29:33;25.58;;;13.90;;
25649;SDS011;13505;45.196;5.696;2023-02-23T10:34:28;32.95;;;14.38;;
25649;SDS011;13505;45.196;5.696;2023-02-23T10:39:20;28.10;;;15.35;;
25649;SDS011;13505;45.196;5.696;2023-02-23T10:44:14;27.50;;;14.85;;
25649;SDS011;13505;45.196;5.696;2023-02-23T10:49:10;24.95;;;14.32;;
25649;SDS011;13505;45.196;5.696;2023-02-23T10:59:28;24.25;;;13.82;;
25649;SDS011;13505;45.196;5.696;2023-02-23T11:14:15;31.45;;;13.15;;
25649;SDS011;13505;45.196;5.696;2023-02-23T11:19:06;34.40;;;14.07;;
25649;SDS011;13505;45.196;5.696;2023-02-23T11:24:28;20.67;;;11.10;;
25649;SDS011;13505;45.196;5.696;2023-02-23T11:29:25;26.60;;;13.55;;
25649;SDS011;13505;45.196;5.696;2023-02-23T11:34:30;24.65;;;11.73;;
25649;SDS011;13505;45.196;5.696;2023-02-23T11:39:22;28.23;;;12.43;;
25649;SDS011;13505;45.196;5.696;2023-02-23T11:44:20;22.25;;;12.35;;
25649;SDS011;13505;45.196;5.696;2023-02-23T11:49:13;22.40;;;13.03;;
25649;SDS011;13505;45.196;5.696;2023-02-23T11:54:29;27.83;;;12.57;;
25649;SDS011;13505;45.196;5.696;2023-02-23T11:59:29;25.60;;;12.00;;
25649;SDS011;13505;45.196;5.696;2023-02-23T12:04:26;23.08;;;12.48;;
25649;SDS011;13505;45.196;5.696;2023-02-23T12:09:26;25.88;;;13.02;;
25649;SDS011;13505;45.196;5.696;2023-02-23T12:19:30;20.10;;;11.40;;
25649;SDS011;13505;45.196;5.696;2023-02-23T12:34:43;16.30;;;9.18;;
25649;SDS011;13505;45.196;5.696;2023-02-23T12:44:36;14.57;;;7.18;;
25649;SDS011;13505;45.196;5.696;2023-02-23T12:49:54;14.35;;;8.15;;
25649;SDS011;13505;45.196;5.696;2023-02-23T12:54:56;30.90;;;10.73;;
25649;SDS011;13505;45.196;5.696;2023-02-23T13:00:03;19.15;;;10.00;;
25649;SDS011;13505;45.196;5.696;2023-02-23T13:25:44;19.23;;;10.60;;
25649;SDS011;13505;45.196;5.696;2023-02-23T13:30:39;23.92;;;11.35;;
25649;SDS011;13505;45.196;5.696;2023-02-23T13:35:36;22.65;;;11.15;;
25649;SDS011;13505;45.196;5.696;2023-02-23T13:40:34;25.45;;;10.60;;
25649;SDS011;13505;45.196;5.696;2023-02-23T13:55:46;21.65;;;10.68;;
25649;SDS011;13505;45.196;5.696;2023-02-23T14:00:40;22.73;;;10.97;;
25649;SDS011;13505;45.196;5.696;2023-02-23T14:05:40;24.63;;;11.50;;
25649;SDS011;13505;45.196;5.696;2023-02-23T14:10:39;22.48;;;11.77;;
25649;SDS011;13505;45.196;5.696;2023-02-23T14:31:18;23.50;;;9.77;;
25649;SDS011;13505;45.196;5.696;2023-02-23T14:41:10;21.10;;;10.23;;
25649;SDS011;13505;45.196;5.696;2023-02-23T14:46:00;26.40;;;10.73;;
25649;SDS011;13505;45.196;5.696;2023-02-23T14:51:08;22.50;;;9.82;;
25649;SDS011;13505;45.196;5.696;2023-02-23T14:56:20;19.15;;;8.73;;
25649;SDS011;13505;45.196;5.696;2023-02-23T15:01:13;22.52;;;9.80;;
25649;SDS011;13505;45.196;5.696;2023-02-23T15:06:21;19.77;;;9.30;;
25649;SDS011;13505;45.196;5.696;2023-02-23T15:11:11;21.40;;;9.77;;
25649;SDS011;13505;45.196;5.696;2023-02-23T15:16:07;16.80;;;9.23;;
25649;SDS011;13505;45.196;5.696;2023-02-23T15:21:14;18.75;;;9.38;;
25649;SDS011;13505;45.196;5.696;2023-02-23T15:26:17;19.30;;;10.30;;
25649;SDS011;13505;45.196;5.696;2023-02-23T15:31:20;19.73;;;10.25;;
25649;SDS011;13505;45.196;5.696;2023-02-23T15:46:25;20.50;;;9.82;;
25649;SDS011;13505;45.196;5.696;2023-02-23T15:51:20;23.38;;;11.50;;
25649;SDS011;13505;45.196;5.696;2023-02-23T15:56:21;23.27;;;11.32;;
25649;SDS011;13505;45.196;5.696;2023-02-23T16:01:20;22.92;;;10.27;;
25649;SDS011;13505;45.196;5.696;2023-02-23T16:06:25;23.13;;;10.93;;
25649;SDS011;13505;45.196;5.696;2023-02-23T16:11:23;25.55;;;11.52;;
25649;SDS011;13505;45.196;5.696;2023-02-23T16:16:15;19.67;;;10.95;;
25649;SDS011;13505;45.196;5.696;2023-02-23T16:21:15;21.08;;;11.43;;
25649;SDS011;13505;45.196;5.696;2023-02-23T16:26:15;21.15;;;11.20;;
25649;SDS011;13505;45.196;5.696;2023-02-23T16:31:09;24.67;;;12.38;;
25649;SDS011;13505;45.196;5.696;2023-02-23T16:41:04;32.05;;;12.18;;
25649;SDS011;13505;45.196;5.696;2023-02-23T16:45:59;25.30;;;11.75;;
25649;SDS011;13505;45.196;5.696;2023-02-23T16:50:50;25.50;;;14.27;;
25649;SDS011;13505;45.196;5.696;2023-02-23T16:55:51;30.55;;;15.43;;
25649;SDS011;13505;45.196;5.696;2023-02-23T17:00:43;33.65;;;16.25;;
25649;SDS011;13505;45.196;5.696;2023-02-23T17:05:33;33.97;;;17.52;;
25649;SDS011;13505;45.196;5.696;2023-02-23T17:10:28;29.53;;;13.90;;
25649;SDS011;13505;45.196;5.696;2023-02-23T17:15:23;33.30;;;15.07;;
25649;SDS011;13505;45.196;5.696;2023-02-23T17:20:18;23.90;;;12.18;;
25649;SDS011;13505;45.196;5.696;2023-02-23T17:25:10;24.25;;;11.65;;
25649;SDS011;13505;45.196;5.696;2023-02-23T17:30:00;29.27;;;13.02;;
25649;SDS011;13505;45.196;5.696;2023-02-23T17:34:51;30.67;;;14.18;;
25649;SDS011;13505;45.196;5.696;2023-02-23T17:39:42;26.00;;;12.30;;
25649;SDS011;13505;45.196;5.696;2023-02-23T17:44:33;21.73;;;11.75;;
25649;SDS011;13505;45.196;5.696;2023-02-23T17:49:24;22.23;;;12.43;;
25649;SDS011;13505;45.196;5.696;2023-02-23T17:54:14;31.10;;;14.27;;
25649;SDS011;13505;45.196;5.696;2023-02-23T17:59:04;25.50;;;12.83;;
25649;SDS011;13505;45.196;5.696;2023-02-23T18:03:55;26.30;;;12.77;;
25649;SDS011;13505;45.196;5.696;2023-02-23T18:08:47;23.48;;;13.57;;
25649;SDS011;13505;45.196;5.696;2023-02-23T18:13:37;29.37;;;13.83;;
25649;SDS011;13505;45.196;5.696;2023-02-23T18:18:28;29.15;;;14.93;;
25649;SDS011;13505;45.196;5.696;2023-02-23T18:23:19;27.13;;;15.63;;
25649;SDS011;13505;45.196;5.696;2023-02-23T18:28:10;31.55;;;16.25;;
25649;SDS011;13505;45.196;5.696;2023-02-23T18:33:01;31.17;;;16.20;;
25649;SDS011;13505;45.196;5.696;2023-02-23T18:37:51;28.45;;;16.67;;
25649;SDS011;13505;45.196;5.696;2023-02-23T18:42:42;29.45;;;16.05;;
25649;SDS011;13505;45.196;5.696;2023-02-23T18:47:32;40.77;;;16.80;;
25649;SDS011;13505;45.196;5.696;2023-02-23T18:52:22;32.97;;;17.85;;
25649;SDS011;13505;45.196;5.696;2023-02-23T18:57:16;42.13;;;19.75;;
25649;SDS011;13505;45.196;5.696;2023-02-23T19:02:06;32.42;;;18.83;;
25649;SDS011;13505;45.196;5.696;2023-02-23T19:06:56;36.70;;;18.33;;
25649;SDS011;13505;45.196;5.696;2023-02-23T19:11:47;38.10;;;18.27;;
25649;SDS011;13505;45.196;5.696;2023-02-23T19:16:39;31.55;;;18.02;;
25649;SDS011;13505;45.196;5.696;2023-02-23T19:21:30;32.78;;;17.83;;
25649;SDS011;13505;45.196;5.696;2023-02-23T19:26:20;28.52;;;16.17;;
25649;SDS011;13505;45.196;5.696;2023-02-23T19:31:12;37.30;;;18.25;;
25649;SDS011;13505;45.196;5.696;2023-02-23T19:36:05;35.97;;;18.40;;
25649;SDS011;13505;45.196;5.696;2023-02-23T19:40:56;31.70;;;17.95;;
25649;SDS011;13505;45.196;5.696;2023-02-23T19:45:47;33.53;;;19.63;;
25649;SDS011;13505;45.196;5.696;2023-02-23T19:50:38;37.53;;;19.55;;
25649;SDS011;13505;45.196;5.696;2023-02-23T19:55:28;34.13;;;18.73;;
25649;SDS011;13505;45.196;5.696;2023-02-23T20:00:19;36.72;;;17.45;;
25649;SDS011;13505;45.196;5.696;2023-02-23T20:05:10;35.28;;;18.13;;
25649;SDS011;13505;45.196;5.696;2023-02-23T20:10:02;35.67;;;17.65;;
25649;SDS011;13505;45.196;5.696;2023-02-23T20:14:54;33.38;;;17.27;;
25649;SDS011;13505;45.196;5.696;2023-02-23T20:19:46;29.13;;;17.33;;
25649;SDS011;13505;45.196;5.696;2023-02-23T20:24:36;34.13;;;17.40;;
25649;SDS011;13505;45.196;5.696;2023-02-23T20:29:30;32.10;;;17.55;;
25649;SDS011;13505;45.196;5.696;2023-02-23T20:34:21;33.63;;;17.05;;
25649;SDS011;13505;45.196;5.696;2023-02-23T20:39:13;37.65;;;18.30;;
25649;SDS011;13505;45.196;5.696;2023-02-23T20:44:05;34.88;;;17.92;;
25649;SDS011;13505;45.196;5.696;2023-02-23T20:48:56;32.10;;;17.73;;
25649;SDS011;13505;45.196;5.696;2023-02-23T20:53:48;33.85;;;18.27;;
25649;SDS011;13505;45.196;5.696;2023-02-23T20:58:38;37.65;;;18.33;;
25649;SDS011;13505;45.196;5.696;2023-02-23T21:03:29;31.42;;;18.70;;
25649;SDS011;13505;45.196;5.696;2023-02-23T21:08:20;40.95;;;19.00;;
25649;SDS011;13505;45.196;5.696;2023-02-23T21:13:10;38.38;;;19.90;;
25649;SDS011;13505;45.196;5.696;2023-02-23T21:18:01;41.22;;;20.73;;
25649;SDS011;13505;45.196;5.696;2023-02-23T21:22:51;41.80;;;20.33;;
25649;SDS011;13505;45.196;5.696;2023-02-23T21:27:42;35.58;;;19.17;;
25649;SDS011;13505;45.196;5.696;2023-02-23T21:32:33;41.80;;;19.80;;
25649;SDS011;13505;45.196;5.696;2023-02-23T21:37:30;36.97;;;18.67;;
25649;SDS011;13505;45.196;5.696;2023-02-23T21:42:20;36.47;;;19.50;;
25649;SDS011;13505;45.196;5.696;2023-02-23T21:47:12;36.30;;;20.33;;
25649;SDS011;13505;45.196;5.696;2023-02-23T21:52:03;39.08;;;21.23;;
25649;SDS011;13505;45.196;5.696;2023-02-23T21:56:54;35.75;;;19.98;;
25649;SDS011;13505;45.196;5.696;2023-02-23T22:01:44;42.63;;;20.33;;
25649;SDS011;13505;45.196;5.696;2023-02-23T22:06:38;37.97;;;20.48;;
25649;SDS011;13505;45.196;5.696;2023-02-23T22:11:31;43.10;;;20.30;;
25649;SDS011;13505;45.196;5.696;2023-02-23T22:16:29;36.17;;;19.73;;
25649;SDS011;13505;45.196;5.696;2023-02-23T22:21:21;39.67;;;20.00;;
25649;SDS011;13505;45.196;5.696;2023-02-23T22:26:12;45.95;;;21.02;;
25649;SDS011;13505;45.196;5.696;2023-02-23T22:31:08;39.42;;;19.58;;
25649;SDS011;13505;45.196;5.696;2023-02-23T22:36:01;39.00;;;19.73;;
25649;SDS011;13505;45.196;5.696;2023-02-23T22:40:53;39.05;;;19.65;;
25649;SDS011;13505;45.196;5.696;2023-02-23T22:45:44;38.55;;;19.65;;
25649;SDS011;13505;45.196;5.696;2023-02-23T22:50:34;42.70;;;22.23;;
25649;SDS011;13505;45.196;5.696;2023-02-23T22:55:26;40.83;;;19.27;;
